sensor_id;sensor_type;location;lat;lon;timestamp;temperature;humidity
41344;DHT22;27089;50.022;7.604;2022-11-20T00:01:11;3.00;99.90
41344;DHT22;27089;50.022;7.604;2022-11-20T00:03:39;3.00;99.90
41344;DHT22;27089;50.022;7.604;2022-11-20T00:06:09;3.00;99.90
41344;DHT22;27089;50.022;7.604;2022-11-20T00:08:37;3.00;99.90
41344;DHT22;27089;50.022;7.604;2022-11-20T00:11:04;3.00;99.90
41344;DHT22;27089;50.022;7.604;2022-11-20T00:13:32;2.90;99.90
41344;DHT22;27089;50.022;7.604;2022-11-20T00:16:00;2.90;99.90
41344;DHT22;27089;50.022;7.604;2022-11-20T00:18:28;2.90;99.90
41344;DHT22;27089;50.022;7.604;2022-11-20T00:21:00;2.80;99.90
41344;DHT22;27089;50.022;7.604;2022-11-20T00:23:29;2.80;99.90
41344;DHT22;27089;50.022;7.604;2022-11-20T00:25:56;2.80;99.90
41344;DHT22;27089;50.022;7.604;2022-11-20T00:28:23;2.80;99.90
41344;DHT22;27089;50.022;7.604;2022-11-20T00:30:50;2.90;99.90
41344;DHT22;27089;50.022;7.604;2022-11-20T00:33:18;2.90;99.90
41344;DHT22;27089;50.022;7.604;2022-11-20T00:35:45;3.00;99.90
41344;DHT22;27089;50.022;7.604;2022-11-20T00:38:12;3.00;99.90
41344;DHT22;27089;50.022;7.604;2022-11-20T00:40:40;3.00;99.90
41344;DHT22;27089;50.022;7.604;2022-11-20T00:43:07;3.10;99.90
41344;DHT22;27089;50.022;7.604;2022-11-20T00:45:34;3.20;99.90
41344;DHT22;27089;50.022;7.604;2022-11-20T00:48:01;3.20;99.90
41344;DHT22;27089;50.022;7.604;2022-11-20T00:50:28;3.30;99.90
41344;DHT22;27089;50.022;7.604;2022-11-20T00:52:55;3.30;99.90
41344;DHT22;27089;50.022;7.604;2022-11-20T00:55:22;3.40;99.90
41344;DHT22;27089;50.022;7.604;2022-11-20T00:57:50;3.40;99.90
41344;DHT22;27089;50.022;7.604;2022-11-20T01:00:17;3.50;99.90
41344;DHT22;27089;50.022;7.604;2022-11-20T01:02:44;3.50;99.90
41344;DHT22;27089;50.022;7.604;2022-11-20T01:05:11;3.50;99.90
41344;DHT22;27089;50.022;7.604;2022-11-20T01:07:38;3.60;99.90
41344;DHT22;27089;50.022;7.604;2022-11-20T01:10:06;3.60;99.90
41344;DHT22;27089;50.022;7.604;2022-11-20T01:12:33;3.60;99.90
41344;DHT22;27089;50.022;7.604;2022-11-20T01:15:01;3.60;99.90
41344;DHT22;27089;50.022;7.604;2022-11-20T01:17:28;3.70;99.90
41344;DHT22;27089;50.022;7.604;2022-11-20T01:19:55;3.70;99.90
41344;DHT22;27089;50.022;7.604;2022-11-20T01:22:22;3.80;99.90
41344;DHT22;27089;50.022;7.604;2022-11-20T01:24:49;3.80;99.90
41344;DHT22;27089;50.022;7.604;2022-11-20T01:27:16;3.80;99.90
41344;DHT22;27089;50.022;7.604;2022-11-20T01:29:43;3.80;99.90
41344;DHT22;27089;50.022;7.604;2022-11-20T01:32:11;3.80;99.90
41344;DHT22;27089;50.022;7.604;2022-11-20T01:34:38;3.70;99.90
41344;DHT22;27089;50.022;7.604;2022-11-20T01:37:05;3.70;99.90
41344;DHT22;27089;50.022;7.604;2022-11-20T01:39:32;3.80;99.90
41344;DHT22;27089;50.022;7.604;2022-11-20T01:41:59;3.80;99.90
41344;DHT22;27089;50.022;7.604;2022-11-20T01:44:51;3.90;99.90
41344;DHT22;27089;50.022;7.604;2022-11-20T01:47:28;3.90;99.90
41344;DHT22;27089;50.022;7.604;2022-11-20T01:49:59;3.90;99.90
41344;DHT22;27089;50.022;7.604;2022-11-20T01:52:32;3.80;99.90
41344;DHT22;27089;50.022;7.604;2022-11-20T01:55:03;3.80;99.90
41344;DHT22;27089;50.022;7.604;2022-11-20T01:57:31;3.80;99.90
41344;DHT22;27089;50.022;7.604;2022-11-20T02:00:03;3.80;99.90
41344;DHT22;27089;50.022;7.604;2022-11-20T02:02:33;3.80;99.90
41344;DHT22;27089;50.022;7.604;2022-11-20T02:05:04;3.80;99.90
41344;DHT22;27089;50.022;7.604;2022-11-20T02:07:35;3.80;99.90
41344;DHT22;27089;50.022;7.604;2022-11-20T02:10:02;3.90;99.90
41344;DHT22;27089;50.022;7.604;2022-11-20T02:12:29;3.90;99.90
41344;DHT22;27089;50.022;7.604;2022-11-20T02:15:14;3.90;99.90
41344;DHT22;27089;50.022;7.604;2022-11-20T02:17:42;3.90;99.90
41344;DHT22;27089;50.022;7.604;2022-11-20T02:20:09;4.00;99.90
41344;DHT22;27089;50.022;7.604;2022-11-20T02:22:41;4.00;99.90
41344;DHT22;27089;50.022;7.604;2022-11-20T02:25:15;4.00;99.90
41344;DHT22;27089;50.022;7.604;2022-11-20T02:27:42;4.00;99.90
41344;DHT22;27089;50.022;7.604;2022-11-20T02:30:10;4.00;99.90
41344;DHT22;27089;50.022;7.604;2022-11-20T02:32:39;4.00;99.90
41344;DHT22;27089;50.022;7.604;2022-11-20T02:35:07;4.00;99.90
41344;DHT22;27089;50.022;7.604;2022-11-20T02:37:37;4.00;99.90
41344;DHT22;27089;50.022;7.604;2022-11-20T02:40:06;4.00;99.90
41344;DHT22;27089;50.022;7.604;2022-11-20T02:42:35;4.00;99.90
41344;DHT22;27089;50.022;7.604;2022-11-20T02:45:02;4.10;99.90
41344;DHT22;27089;50.022;7.604;2022-11-20T02:47:29;4.10;99.90
41344;DHT22;27089;50.022;7.604;2022-11-20T02:49:56;4.10;99.90
41344;DHT22;27089;50.022;7.604;2022-11-20T02:52:23;4.10;99.90
41344;DHT22;27089;50.022;7.604;2022-11-20T02:54:50;4.10;99.90
41344;DHT22;27089;50.022;7.604;2022-11-20T02:57:17;4.20;99.90
41344;DHT22;27089;50.022;7.604;2022-11-20T02:59:45;4.20;99.90
41344;DHT22;27089;50.022;7.604;2022-11-20T03:02:12;4.10;99.90
41344;DHT22;27089;50.022;7.604;2022-11-20T03:04:39;4.20;99.90
41344;DHT22;27089;50.022;7.604;2022-11-20T03:07:07;4.20;99.90
41344;DHT22;27089;50.022;7.604;2022-11-20T03:09:35;4.10;99.90
41344;DHT22;27089;50.022;7.604;2022-11-20T03:12:02;4.20;99.90
41344;DHT22;27089;50.022;7.604;2022-11-20T03:14:29;4.20;99.90
41344;DHT22;27089;50.022;7.604;2022-11-20T03:16:57;4.20;99.90
41344;DHT22;27089;50.022;7.604;2022-11-20T03:19:24;4.20;99.90
41344;DHT22;27089;50.022;7.604;2022-11-20T03:21:51;4.20;99.90
41344;DHT22;27089;50.022;7.604;2022-11-20T03:24:18;4.20;99.90
41344;DHT22;27089;50.022;7.604;2022-11-20T03:26:45;4.20;99.90
41344;DHT22;27089;50.022;7.604;2022-11-20T03:29:12;4.30;99.90
41344;DHT22;27089;50.022;7.604;2022-11-20T03:31:40;4.30;99.90
41344;DHT22;27089;50.022;7.604;2022-11-20T03:34:10;4.30;99.90
41344;DHT22;27089;50.022;7.604;2022-11-20T03:36:38;4.30;99.90
41344;DHT22;27089;50.022;7.604;2022-11-20T03:39:05;4.30;99.90
41344;DHT22;27089;50.022;7.604;2022-11-20T03:41:36;4.20;99.90
41344;DHT22;27089;50.022;7.604;2022-11-20T03:44:05;4.20;99.90
41344;DHT22;27089;50.022;7.604;2022-11-20T03:46:32;4.20;99.90
41344;DHT22;27089;50.022;7.604;2022-11-20T03:49:00;4.20;99.90
41344;DHT22;27089;50.022;7.604;2022-11-20T03:51:30;4.20;99.90
41344;DHT22;27089;50.022;7.604;2022-11-20T03:53:59;4.20;99.90
41344;DHT22;27089;50.022;7.604;2022-11-20T03:56:27;4.20;99.90
41344;DHT22;27089;50.022;7.604;2022-11-20T03:58:54;4.30;99.90
41344;DHT22;27089;50.022;7.604;2022-11-20T04:01:23;4.20;99.90
41344;DHT22;27089;50.022;7.604;2022-11-20T04:03:52;4.20;99.90
41344;DHT22;27089;50.022;7.604;2022-11-20T04:06:21;4.20;99.90
41344;DHT22;27089;50.022;7.604;2022-11-20T04:08:50;4.20;99.90
41344;DHT22;27089;50.022;7.604;2022-11-20T04:11:19;4.30;99.90
41344;DHT22;27089;50.022;7.604;2022-11-20T04:13:48;4.30;99.90
41344;DHT22;27089;50.022;7.604;2022-11-20T04:16:15;4.30;99.90
41344;DHT22;27089;50.022;7.604;2022-11-20T04:18:43;4.30;99.90
41344;DHT22;27089;50.022;7.604;2022-11-20T04:21:10;4.30;99.90
41344;DHT22;27089;50.022;7.604;2022-11-20T04:23:38;4.40;99.90
41344;DHT22;27089;50.022;7.604;2022-11-20T04:26:08;4.40;99.90
41344;DHT22;27089;50.022;7.604;2022-11-20T04:28:36;4.40;99.90
41344;DHT22;27089;50.022;7.604;2022-11-20T04:31:05;4.40;99.90
41344;DHT22;27089;50.022;7.604;2022-11-20T04:33:32;4.40;99.90
41344;DHT22;27089;50.022;7.604;2022-11-20T04:36:04;4.50;99.90
41344;DHT22;27089;50.022;7.604;2022-11-20T04:38:31;4.50;99.90
41344;DHT22;27089;50.022;7.604;2022-11-20T04:40:59;4.50;99.90
41344;DHT22;27089;50.022;7.604;2022-11-20T04:43:28;4.50;99.90
41344;DHT22;27089;50.022;7.604;2022-11-20T04:45:56;4.50;99.90
41344;DHT22;27089;50.022;7.604;2022-11-20T04:48:24;4.50;99.90
41344;DHT22;27089;50.022;7.604;2022-11-20T04:50:52;4.40;99.90
41344;DHT22;27089;50.022;7.604;2022-11-20T04:53:19;4.50;99.90
41344;DHT22;27089;50.022;7.604;2022-11-20T04:55:46;4.50;99.90
41344;DHT22;27089;50.022;7.604;2022-11-20T04:58:14;4.50;99.90
41344;DHT22;27089;50.022;7.604;2022-11-20T05:00:42;4.50;99.90
41344;DHT22;27089;50.022;7.604;2022-11-20T05:03:09;4.50;99.90
41344;DHT22;27089;50.022;7.604;2022-11-20T05:05:36;4.50;99.90
41344;DHT22;27089;50.022;7.604;2022-11-20T05:08:03;4.50;99.90
41344;DHT22;27089;50.022;7.604;2022-11-20T05:10:30;4.50;99.90
41344;DHT22;27089;50.022;7.604;2022-11-20T05:12:57;4.60;99.90
41344;DHT22;27089;50.022;7.604;2022-11-20T05:15:24;4.50;99.90
41344;DHT22;27089;50.022;7.604;2022-11-20T05:17:53;4.60;99.90
41344;DHT22;27089;50.022;7.604;2022-11-20T05:20:20;4.60;99.90
41344;DHT22;27089;50.022;7.604;2022-11-20T05:22:47;4.50;99.90
41344;DHT22;27089;50.022;7.604;2022-11-20T05:25:14;4.50;99.90
41344;DHT22;27089;50.022;7.604;2022-11-20T05:27:41;4.50;99.90
41344;DHT22;27089;50.022;7.604;2022-11-20T05:30:09;4.50;99.90
41344;DHT22;27089;50.022;7.604;2022-11-20T05:32:36;4.50;99.90
41344;DHT22;27089;50.022;7.604;2022-11-20T05:35:05;4.50;99.90
41344;DHT22;27089;50.022;7.604;2022-11-20T05:37:32;4.50;99.90
41344;DHT22;27089;50.022;7.604;2022-11-20T05:39:59;4.50;99.90
41344;DHT22;27089;50.022;7.604;2022-11-20T05:42:26;4.50;99.90
41344;DHT22;27089;50.022;7.604;2022-11-20T05:44:59;4.50;99.90
41344;DHT22;27089;50.022;7.604;2022-11-20T05:47:27;4.50;99.90
41344;DHT22;27089;50.022;7.604;2022-11-20T05:49:55;4.60;99.90
41344;DHT22;27089;50.022;7.604;2022-11-20T05:52:23;4.60;99.90
41344;DHT22;27089;50.022;7.604;2022-11-20T05:54:50;4.60;99.90
41344;DHT22;27089;50.022;7.604;2022-11-20T05:57:17;4.70;99.90
41344;DHT22;27089;50.022;7.604;2022-11-20T05:59:44;4.70;99.90
41344;DHT22;27089;50.022;7.604;2022-11-20T06:02:11;4.70;99.90
41344;DHT22;27089;50.022;7.604;2022-11-20T06:04:38;4.60;99.90
41344;DHT22;27089;50.022;7.604;2022-11-20T06:07:05;4.70;99.90
41344;DHT22;27089;50.022;7.604;2022-11-20T06:09:34;4.70;99.90
41344;DHT22;27089;50.022;7.604;2022-11-20T06:12:01;4.70;99.90
41344;DHT22;27089;50.022;7.604;2022-11-20T06:14:28;4.70;99.90
41344;DHT22;27089;50.022;7.604;2022-11-20T06:16:55;4.70;99.90
41344;DHT22;27089;50.022;7.604;2022-11-20T06:19:22;4.70;99.90
41344;DHT22;27089;50.022;7.604;2022-11-20T06:21:49;4.70;99.90
41344;DHT22;27089;50.022;7.604;2022-11-20T06:24:16;4.70;99.90
41344;DHT22;27089;50.022;7.604;2022-11-20T06:26:44;4.70;99.90
41344;DHT22;27089;50.022;7.604;2022-11-20T06:29:11;4.80;99.90
41344;DHT22;27089;50.022;7.604;2022-11-20T06:31:38;4.70;99.90
41344;DHT22;27089;50.022;7.604;2022-11-20T06:34:07;4.80;99.90
41344;DHT22;27089;50.022;7.604;2022-11-20T06:36:34;4.80;99.90
41344;DHT22;27089;50.022;7.604;2022-11-20T06:39:02;4.70;99.90
41344;DHT22;27089;50.022;7.604;2022-11-20T06:41:29;4.70;99.90
41344;DHT22;27089;50.022;7.604;2022-11-20T06:43:57;4.80;99.90
41344;DHT22;27089;50.022;7.604;2022-11-20T06:46:24;4.80;99.90
41344;DHT22;27089;50.022;7.604;2022-11-20T06:48:51;4.80;99.90
41344;DHT22;27089;50.022;7.604;2022-11-20T06:51:18;4.80;99.90
41344;DHT22;27089;50.022;7.604;2022-11-20T06:53:46;4.80;99.90
41344;DHT22;27089;50.022;7.604;2022-11-20T06:56:14;4.80;99.90
41344;DHT22;27089;50.022;7.604;2022-11-20T06:58:41;4.90;99.90
41344;DHT22;27089;50.022;7.604;2022-11-20T07:01:11;4.90;99.90
41344;DHT22;27089;50.022;7.604;2022-11-20T07:03:39;4.90;99.90
41344;DHT22;27089;50.022;7.604;2022-11-20T07:06:07;4.90;99.90
41344;DHT22;27089;50.022;7.604;2022-11-20T07:08:34;4.90;99.90
41344;DHT22;27089;50.022;7.604;2022-11-20T07:11:04;4.90;99.90
41344;DHT22;27089;50.022;7.604;2022-11-20T07:13:32;4.90;99.90
41344;DHT22;27089;50.022;7.604;2022-11-20T07:15:59;4.90;99.90
41344;DHT22;27089;50.022;7.604;2022-11-20T07:18:29;4.90;99.90
41344;DHT22;27089;50.022;7.604;2022-11-20T07:20:59;5.00;99.90
41344;DHT22;27089;50.022;7.604;2022-11-20T07:23:26;5.00;99.90
41344;DHT22;27089;50.022;7.604;2022-11-20T07:25:53;5.00;99.90
41344;DHT22;27089;50.022;7.604;2022-11-20T07:28:20;5.00;99.90
41344;DHT22;27089;50.022;7.604;2022-11-20T07:30:50;5.00;99.90
41344;DHT22;27089;50.022;7.604;2022-11-20T07:33:17;5.10;99.90
41344;DHT22;27089;50.022;7.604;2022-11-20T07:35:45;5.10;99.90
41344;DHT22;27089;50.022;7.604;2022-11-20T07:38:12;5.10;99.90
41344;DHT22;27089;50.022;7.604;2022-11-20T07:40:39;5.00;99.90
41344;DHT22;27089;50.022;7.604;2022-11-20T07:43:06;5.10;99.90
41344;DHT22;27089;50.022;7.604;2022-11-20T07:45:33;5.10;99.90
41344;DHT22;27089;50.022;7.604;2022-11-20T07:48:01;5.20;99.90
41344;DHT22;27089;50.022;7.604;2022-11-20T07:50:27;5.30;99.90
41344;DHT22;27089;50.022;7.604;2022-11-20T07:53:02;5.30;99.90
41344;DHT22;27089;50.022;7.604;2022-11-20T07:55:29;5.40;99.90
41344;DHT22;27089;50.022;7.604;2022-11-20T07:57:56;5.40;99.90
41344;DHT22;27089;50.022;7.604;2022-11-20T08:00:24;5.50;99.90
41344;DHT22;27089;50.022;7.604;2022-11-20T08:02:52;5.50;99.90
41344;DHT22;27089;50.022;7.604;2022-11-20T08:05:19;5.50;99.90
41344;DHT22;27089;50.022;7.604;2022-11-20T08:07:45;5.50;99.90
41344;DHT22;27089;50.022;7.604;2022-11-20T08:10:15;5.60;99.90
41344;DHT22;27089;50.022;7.604;2022-11-20T08:12:46;5.60;99.90
41344;DHT22;27089;50.022;7.604;2022-11-20T08:15:31;5.60;99.90
41344;DHT22;27089;50.022;7.604;2022-11-20T08:18:03;5.70;99.90
41344;DHT22;27089;50.022;7.604;2022-11-20T08:20:30;5.70;99.90
41344;DHT22;27089;50.022;7.604;2022-11-20T08:22:58;5.80;99.90
41344;DHT22;27089;50.022;7.604;2022-11-20T08:25:27;5.90;99.90
41344;DHT22;27089;50.022;7.604;2022-11-20T08:27:57;5.80;99.90
41344;DHT22;27089;50.022;7.604;2022-11-20T08:30:25;5.90;99.90
41344;DHT22;27089;50.022;7.604;2022-11-20T08:32:52;5.80;99.90
41344;DHT22;27089;50.022;7.604;2022-11-20T08:35:19;5.70;99.90
41344;DHT22;27089;50.022;7.604;2022-11-20T08:37:46;5.70;99.90
41344;DHT22;27089;50.022;7.604;2022-11-20T08:40:13;5.70;99.90
41344;DHT22;27089;50.022;7.604;2022-11-20T08:42:47;5.70;99.90
41344;DHT22;27089;50.022;7.604;2022-11-20T08:45:15;5.70;99.90
41344;DHT22;27089;50.022;7.604;2022-11-20T08:47:42;5.70;99.90
41344;DHT22;27089;50.022;7.604;2022-11-20T08:50:09;5.70;99.90
41344;DHT22;27089;50.022;7.604;2022-11-20T08:52:36;5.60;99.90
41344;DHT22;27089;50.022;7.604;2022-11-20T08:55:04;5.60;99.90
41344;DHT22;27089;50.022;7.604;2022-11-20T08:57:32;5.70;99.90
41344;DHT22;27089;50.022;7.604;2022-11-20T09:00:01;5.70;99.90
41344;DHT22;27089;50.022;7.604;2022-11-20T09:02:29;5.70;99.90
41344;DHT22;27089;50.022;7.604;2022-11-20T09:04:58;5.60;99.90
41344;DHT22;27089;50.022;7.604;2022-11-20T09:07:25;5.60;99.90
41344;DHT22;27089;50.022;7.604;2022-11-20T09:09:51;5.60;99.90
41344;DHT22;27089;50.022;7.604;2022-11-20T09:12:18;5.70;99.90
41344;DHT22;27089;50.022;7.604;2022-11-20T09:14:45;5.70;99.90
41344;DHT22;27089;50.022;7.604;2022-11-20T09:17:14;5.80;99.90
41344;DHT22;27089;50.022;7.604;2022-11-20T09:19:41;5.80;99.90
41344;DHT22;27089;50.022;7.604;2022-11-20T09:22:08;5.70;99.90
41344;DHT22;27089;50.022;7.604;2022-11-20T09:24:35;5.80;99.90
41344;DHT22;27089;50.022;7.604;2022-11-20T09:27:03;5.80;99.90
41344;DHT22;27089;50.022;7.604;2022-11-20T09:29:31;5.90;99.90
41344;DHT22;27089;50.022;7.604;2022-11-20T09:31:58;6.00;99.90
41344;DHT22;27089;50.022;7.604;2022-11-20T09:34:26;6.00;99.90
41344;DHT22;27089;50.022;7.604;2022-11-20T09:36:54;6.00;99.90
41344;DHT22;27089;50.022;7.604;2022-11-20T09:39:21;6.00;99.90
41344;DHT22;27089;50.022;7.604;2022-11-20T09:42:16;6.10;99.90
41344;DHT22;27089;50.022;7.604;2022-11-20T09:45:10;6.10;99.90
41344;DHT22;27089;50.022;7.604;2022-11-20T09:48:01;6.10;99.90
41344;DHT22;27089;50.022;7.604;2022-11-20T09:50:37;6.10;99.90
41344;DHT22;27089;50.022;7.604;2022-11-20T09:53:19;6.20;99.90
41344;DHT22;27089;50.022;7.604;2022-11-20T09:55:48;6.20;99.90
41344;DHT22;27089;50.022;7.604;2022-11-20T09:58:21;6.20;99.90
41344;DHT22;27089;50.022;7.604;2022-11-20T10:00:51;6.10;99.90
41344;DHT22;27089;50.022;7.604;2022-11-20T10:03:30;6.20;99.90
41344;DHT22;27089;50.022;7.604;2022-11-20T10:06:02;6.20;99.90
41344;DHT22;27089;50.022;7.604;2022-11-20T10:08:38;6.20;99.90
41344;DHT22;27089;50.022;7.604;2022-11-20T10:11:12;6.20;99.90
41344;DHT22;27089;50.022;7.604;2022-11-20T10:13:49;6.30;99.90
41344;DHT22;27089;50.022;7.604;2022-11-20T10:16:27;6.40;99.90
41344;DHT22;27089;50.022;7.604;2022-11-20T10:19:09;6.40;99.90
41344;DHT22;27089;50.022;7.604;2022-11-20T10:21:50;6.50;99.90
41344;DHT22;27089;50.022;7.604;2022-11-20T10:24:44;6.40;99.90
41344;DHT22;27089;50.022;7.604;2022-11-20T10:27:35;6.50;99.90
41344;DHT22;27089;50.022;7.604;2022-11-20T10:30:09;6.40;99.90
41344;DHT22;27089;50.022;7.604;2022-11-20T10:32:38;6.40;99.90
41344;DHT22;27089;50.022;7.604;2022-11-20T10:35:15;6.40;99.90
41344;DHT22;27089;50.022;7.604;2022-11-20T10:37:46;6.40;99.90
41344;DHT22;27089;50.022;7.604;2022-11-20T10:40:22;6.40;99.90
41344;DHT22;27089;50.022;7.604;2022-11-20T10:42:54;6.50;99.90
41344;DHT22;27089;50.022;7.604;2022-11-20T10:45:42;6.60;99.90
41344;DHT22;27089;50.022;7.604;2022-11-20T10:48:20;6.60;99.90
41344;DHT22;27089;50.022;7.604;2022-11-20T10:51:07;6.70;99.90
41344;DHT22;27089;50.022;7.604;2022-11-20T10:53:56;6.80;99.90
41344;DHT22;27089;50.022;7.604;2022-11-20T10:56:30;6.80;99.90
41344;DHT22;27089;50.022;7.604;2022-11-20T10:59:19;6.90;99.90
41344;DHT22;27089;50.022;7.604;2022-11-20T11:01:51;7.10;99.90
41344;DHT22;27089;50.022;7.604;2022-11-20T11:04:28;7.20;99.90
41344;DHT22;27089;50.022;7.604;2022-11-20T11:07:05;7.30;99.90
41344;DHT22;27089;50.022;7.604;2022-11-20T11:09:38;7.30;99.90
41344;DHT22;27089;50.022;7.604;2022-11-20T11:12:07;7.50;99.90
41344;DHT22;27089;50.022;7.604;2022-11-20T11:14:42;7.60;99.90
41344;DHT22;27089;50.022;7.604;2022-11-20T11:17:23;7.70;99.90
41344;DHT22;27089;50.022;7.604;2022-11-20T11:20:04;7.90;99.90
41344;DHT22;27089;50.022;7.604;2022-11-20T11:22:33;7.90;99.90
41344;DHT22;27089;50.022;7.604;2022-11-20T11:25:02;7.90;99.90
41344;DHT22;27089;50.022;7.604;2022-11-20T11:27:29;7.90;99.90
41344;DHT22;27089;50.022;7.604;2022-11-20T11:30:13;7.90;99.90
41344;DHT22;27089;50.022;7.604;2022-11-20T11:32:41;7.80;99.90
41344;DHT22;27089;50.022;7.604;2022-11-20T11:35:20;7.80;99.90
41344;DHT22;27089;50.022;7.604;2022-11-20T11:37:48;7.70;99.90
41344;DHT22;27089;50.022;7.604;2022-11-20T11:40:18;7.70;99.90
41344;DHT22;27089;50.022;7.604;2022-11-20T11:42:51;7.70;99.90
41344;DHT22;27089;50.022;7.604;2022-11-20T11:45:20;7.70;99.90
41344;DHT22;27089;50.022;7.604;2022-11-20T11:47:47;7.70;99.90
41344;DHT22;27089;50.022;7.604;2022-11-20T11:50:20;7.70;99.90
41344;DHT22;27089;50.022;7.604;2022-11-20T11:52:54;7.70;99.90
41344;DHT22;27089;50.022;7.604;2022-11-20T11:55:31;7.70;99.90
41344;DHT22;27089;50.022;7.604;2022-11-20T11:58:08;7.70;99.90
41344;DHT22;27089;50.022;7.604;2022-11-20T12:00:40;7.70;99.90
41344;DHT22;27089;50.022;7.604;2022-11-20T12:03:14;7.80;99.90
41344;DHT22;27089;50.022;7.604;2022-11-20T12:05:45;7.80;99.90
41344;DHT22;27089;50.022;7.604;2022-11-20T12:08:18;7.90;99.90
41344;DHT22;27089;50.022;7.604;2022-11-20T12:10:55;8.00;99.90
41344;DHT22;27089;50.022;7.604;2022-11-20T12:13:40;8.10;99.90
41344;DHT22;27089;50.022;7.604;2022-11-20T12:16:12;8.20;99.90
41344;DHT22;27089;50.022;7.604;2022-11-20T12:18:40;8.30;99.90
41344;DHT22;27089;50.022;7.604;2022-11-20T12:21:18;8.30;99.90
41344;DHT22;27089;50.022;7.604;2022-11-20T12:27:00;8.40;99.90
41344;DHT22;27089;50.022;7.604;2022-11-20T12:29:38;8.30;99.90
41344;DHT22;27089;50.022;7.604;2022-11-20T12:32:32;8.40;99.90
41344;DHT22;27089;50.022;7.604;2022-11-20T12:35:13;8.40;99.90
41344;DHT22;27089;50.022;7.604;2022-11-20T12:37:57;8.40;99.90
41344;DHT22;27089;50.022;7.604;2022-11-20T12:40:32;8.50;99.90
41344;DHT22;27089;50.022;7.604;2022-11-20T12:43:11;8.50;99.90
41344;DHT22;27089;50.022;7.604;2022-11-20T12:46:11;8.60;99.90
41344;DHT22;27089;50.022;7.604;2022-11-20T12:48:57;8.60;99.90
41344;DHT22;27089;50.022;7.604;2022-11-20T12:51:40;8.70;99.90
41344;DHT22;27089;50.022;7.604;2022-11-20T12:54:29;8.80;99.90
41344;DHT22;27089;50.022;7.604;2022-11-20T12:57:04;8.90;99.90
41344;DHT22;27089;50.022;7.604;2022-11-20T12:59:53;9.00;99.90
41344;DHT22;27089;50.022;7.604;2022-11-20T13:02:26;9.00;99.90
41344;DHT22;27089;50.022;7.604;2022-11-20T13:05:08;9.00;99.90
41344;DHT22;27089;50.022;7.604;2022-11-20T13:07:42;8.90;99.90
41344;DHT22;27089;50.022;7.604;2022-11-20T13:10:15;8.80;99.90
41344;DHT22;27089;50.022;7.604;2022-11-20T13:12:48;8.80;99.90
41344;DHT22;27089;50.022;7.604;2022-11-20T13:15:28;8.80;99.90
41344;DHT22;27089;50.022;7.604;2022-11-20T13:18:00;8.80;99.90
41344;DHT22;27089;50.022;7.604;2022-11-20T13:20:29;8.80;99.90
41344;DHT22;27089;50.022;7.604;2022-11-20T13:22:57;8.70;99.90
41344;DHT22;27089;50.022;7.604;2022-11-20T13:25:25;8.70;99.90
41344;DHT22;27089;50.022;7.604;2022-11-20T13:27:54;8.60;99.90
41344;DHT22;27089;50.022;7.604;2022-11-20T13:30:24;8.60;99.90
41344;DHT22;27089;50.022;7.604;2022-11-20T13:32:53;8.60;99.90
41344;DHT22;27089;50.022;7.604;2022-11-20T13:35:26;8.50;99.90
41344;DHT22;27089;50.022;7.604;2022-11-20T13:38:05;8.50;99.90
41344;DHT22;27089;50.022;7.604;2022-11-20T13:40:32;8.50;99.90
41344;DHT22;27089;50.022;7.604;2022-11-20T13:43:10;8.40;99.90
41344;DHT22;27089;50.022;7.604;2022-11-20T13:45:39;8.40;99.90
41344;DHT22;27089;50.022;7.604;2022-11-20T13:48:20;8.40;99.90
41344;DHT22;27089;50.022;7.604;2022-11-20T13:50:56;8.40;99.90
41344;DHT22;27089;50.022;7.604;2022-11-20T13:53:58;8.40;99.90
41344;DHT22;27089;50.022;7.604;2022-11-20T13:56:39;8.30;99.90
41344;DHT22;27089;50.022;7.604;2022-11-20T13:59:17;8.30;99.90
41344;DHT22;27089;50.022;7.604;2022-11-20T14:01:53;8.30;99.90
41344;DHT22;27089;50.022;7.604;2022-11-20T14:04:26;8.40;99.90
41344;DHT22;27089;50.022;7.604;2022-11-20T14:06:56;8.30;99.90
41344;DHT22;27089;50.022;7.604;2022-11-20T14:09:28;8.30;99.90
41344;DHT22;27089;50.022;7.604;2022-11-20T14:11:55;8.30;99.90
41344;DHT22;27089;50.022;7.604;2022-11-20T14:14:23;8.20;99.90
41344;DHT22;27089;50.022;7.604;2022-11-20T14:17:03;8.20;99.90
41344;DHT22;27089;50.022;7.604;2022-11-20T14:19:31;8.10;99.90
41344;DHT22;27089;50.022;7.604;2022-11-20T14:22:17;8.10;99.90
41344;DHT22;27089;50.022;7.604;2022-11-20T14:24:45;8.10;99.90
41344;DHT22;27089;50.022;7.604;2022-11-20T14:27:14;8.00;99.90
41344;DHT22;27089;50.022;7.604;2022-11-20T14:29:41;7.90;99.90
41344;DHT22;27089;50.022;7.604;2022-11-20T14:32:11;7.90;99.90
41344;DHT22;27089;50.022;7.604;2022-11-20T14:34:45;7.90;99.90
41344;DHT22;27089;50.022;7.604;2022-11-20T14:37:19;7.80;99.90
41344;DHT22;27089;50.022;7.604;2022-11-20T14:39:52;7.80;99.90
41344;DHT22;27089;50.022;7.604;2022-11-20T14:42:21;7.70;99.90
41344;DHT22;27089;50.022;7.604;2022-11-20T14:44:49;7.70;99.90
41344;DHT22;27089;50.022;7.604;2022-11-20T14:47:21;7.70;99.90
41344;DHT22;27089;50.022;7.604;2022-11-20T14:49:50;7.60;99.90
41344;DHT22;27089;50.022;7.604;2022-11-20T14:52:20;7.60;99.90
41344;DHT22;27089;50.022;7.604;2022-11-20T14:54:49;7.50;99.90
41344;DHT22;27089;50.022;7.604;2022-11-20T14:57:25;7.50;99.90
41344;DHT22;27089;50.022;7.604;2022-11-20T15:00:05;7.50;99.90
41344;DHT22;27089;50.022;7.604;2022-11-20T15:02:34;7.40;99.90
41344;DHT22;27089;50.022;7.604;2022-11-20T15:05:02;7.30;99.90
41344;DHT22;27089;50.022;7.604;2022-11-20T15:07:31;7.30;99.90
41344;DHT22;27089;50.022;7.604;2022-11-20T15:10:01;7.20;99.90
41344;DHT22;27089;50.022;7.604;2022-11-20T15:12:29;7.20;99.90
41344;DHT22;27089;50.022;7.604;2022-11-20T15:14:56;7.20;99.90
41344;DHT22;27089;50.022;7.604;2022-11-20T15:17:23;7.10;99.90
41344;DHT22;27089;50.022;7.604;2022-11-20T15:19:52;7.10;99.90
41344;DHT22;27089;50.022;7.604;2022-11-20T15:22:19;7.10;99.90
41344;DHT22;27089;50.022;7.604;2022-11-20T15:24:46;7.10;99.90
41344;DHT22;27089;50.022;7.604;2022-11-20T15:27:14;7.10;99.90
41344;DHT22;27089;50.022;7.604;2022-11-20T15:29:41;7.10;99.90
41344;DHT22;27089;50.022;7.604;2022-11-20T15:32:09;7.10;99.90
41344;DHT22;27089;50.022;7.604;2022-11-20T15:34:36;7.00;99.90
41344;DHT22;27089;50.022;7.604;2022-11-20T15:37:05;7.10;99.90
41344;DHT22;27089;50.022;7.604;2022-11-20T15:39:32;7.10;99.90
41344;DHT22;27089;50.022;7.604;2022-11-20T15:41:59;7.10;99.90
41344;DHT22;27089;50.022;7.604;2022-11-20T15:44:26;7.10;99.90
41344;DHT22;27089;50.022;7.604;2022-11-20T15:46:53;7.10;99.90
41344;DHT22;27089;50.022;7.604;2022-11-20T15:49:20;7.10;99.90
41344;DHT22;27089;50.022;7.604;2022-11-20T15:51:49;7.10;99.90
41344;DHT22;27089;50.022;7.604;2022-11-20T15:54:21;7.10;99.90
41344;DHT22;27089;50.022;7.604;2022-11-20T15:56:49;7.10;99.90
41344;DHT22;27089;50.022;7.604;2022-11-20T15:59:18;7.10;99.90
41344;DHT22;27089;50.022;7.604;2022-11-20T16:01:44;7.10;99.90
41344;DHT22;27089;50.022;7.604;2022-11-20T16:04:13;7.10;99.90
41344;DHT22;27089;50.022;7.604;2022-11-20T16:06:40;7.10;99.90
41344;DHT22;27089;50.022;7.604;2022-11-20T16:09:08;7.10;99.90